SBSG

Governador Aluízio Alves International Airport

Natal, Brazil
TAF SBSG 211600Z 2118/2218 19010KT 8000 SCT022 TN20/2208Z TX28/2216Z BECMG 2123/2201 22006KT BECMG 2212/2213 17011KT BKN018 BECMG 2215/2217 SCT030 RMK PCH
Issued Valid From Valid To
Jun-21 @ 16:00 UTC
(2 hours ago)
Jun-21 @ 18:00 UTC
(9 minutes ago)
Jun-22 @ 18:00 UTC
(in 24 hours)
Jun-21 @ 18:00 to Jun-21 @ 23:00
TAF SBSG 211600Z 2118/2218 19010KT 8000 SCT022 TN20/2208Z TX28/2216Z
Wind Visibility Clouds
190° at 10 knots 7,998 meters
  • Scattered at 2,200' AGL
Becoming Jun-21 @ 23:00 to Jun-22 @ 12:00
BECMG 2123/2201 22006KT
Wind Visibility Clouds
220° at 6 knots 7,998 meters
  • Scattered at 2,200' AGL
Becoming Jun-22 @ 12:00 to Jun-22 @ 15:00
BECMG 2212/2213 17011KT BKN018
Wind Visibility Clouds
170° at 11 knots 7,998 meters
  • Broken at 1,800' AGL
Becoming Jun-22 @ 15:00 to Jun-22 @ 18:00
BECMG 2215/2217 SCT030 RMK PCH
Wind Visibility Clouds
170° at 11 knots 7,998 meters
  • Scattered at 3,000' AGL
TAF SBSG 211600Z 2118/2218 19010KT 8000 SCT022 TN20/2208Z TX28/2216Z BECMG 2123/2201 22006KT BECMG 2212/2213 17011KT BKN018 BECMG 2215/2217 SCT030 RMK PCH
Issued Jun-21 @ 16:00 UTC
(2 hours ago)
Valid From Jun-21 @ 18:00 UTC
(9 minutes ago)
Valid To Jun-22 @ 18:00 UTC
(in 24 hours)
Jun-21 @ 18:00 - Jun-21 @ 23:00
Wind Visibility
190° at 10 knots 7,998 meters
Clouds
  • Scattered at 2,200' AGL
Becoming Jun-21 @ 23:00 - Jun-22 @ 12:00
Wind Visibility
220° at 6 knots 7,998 meters
Clouds
  • Scattered at 2,200' AGL
Becoming Jun-22 @ 12:00 - Jun-22 @ 15:00
Wind Visibility
170° at 11 knots 7,998 meters
Clouds
  • Broken at 1,800' AGL
Becoming Jun-22 @ 15:00 - Jun-22 @ 18:00
Wind Visibility
170° at 11 knots 7,998 meters
Clouds
  • Scattered at 3,000' AGL